createdAt,value
2023-04-21T00:01:50.428Z,1929
2023-04-21T00:07:08.584Z,1943
2023-04-21T00:12:26.700Z,1947
2023-04-21T00:17:45.176Z,1963
2023-04-21T00:23:03.577Z,1964
2023-04-21T00:28:21.926Z,1979
2023-04-21T00:33:40.142Z,2001
2023-04-21T00:38:58.257Z,2029
2023-04-21T00:44:16.641Z,2034
2023-04-21T00:49:35.246Z,2037
2023-04-21T00:54:53.409Z,2044
2023-04-21T01:00:11.758Z,2041
2023-04-21T01:05:29.963Z,2040
2023-04-21T01:10:48.328Z,2043
2023-04-21T01:16:06.859Z,2049
2023-04-21T01:21:25.210Z,2049
2023-04-21T01:26:43.341Z,2049
2023-04-21T01:32:01.542Z,2052
2023-04-21T01:37:20.017Z,2055
2023-04-21T01:42:38.551Z,2044
2023-04-21T01:47:56.910Z,2050
2023-04-21T01:53:15.599Z,2047
2023-04-21T01:58:33.909Z,2044
2023-04-21T02:03:52.212Z,2044
2023-04-21T02:09:11.048Z,2054
2023-04-21T02:14:29.423Z,2050
2023-04-21T02:19:47.752Z,2045
2023-04-21T02:25:06.378Z,2052
2023-04-21T02:30:24.548Z,2060
2023-04-21T02:35:43.090Z,2073
2023-04-21T02:41:01.264Z,2075
2023-04-21T02:46:19.841Z,2075
2023-04-21T02:51:38.193Z,2078
2023-04-21T02:56:56.550Z,2084
2023-04-21T03:02:14.600Z,2085
2023-04-21T03:07:33.057Z,2084
2023-04-21T03:12:51.601Z,2087
2023-04-21T03:17:54.144Z,2048
2023-04-21T03:23:12.514Z,2046
2023-04-21T03:28:30.936Z,2021
2023-04-21T03:33:49.249Z,2086
2023-04-21T03:39:19.046Z,2095
2023-04-21T03:44:39.088Z,2041
2023-04-21T03:49:57.335Z,2002
2023-04-21T03:55:15.513Z,1986
2023-04-21T04:00:33.862Z,1959
2023-04-21T04:05:36.415Z,1934
2023-04-21T04:10:54.982Z,1926
2023-04-21T04:16:13.432Z,1911
2023-04-21T04:21:31.812Z,1891
2023-04-21T04:26:50.006Z,1886
2023-04-21T04:32:08.364Z,1858
2023-04-21T04:37:26.789Z,1839
2023-04-21T04:42:45.133Z,1258
2023-04-21T04:48:03.573Z,1161
2023-04-21T04:53:21.805Z,975
2023-04-21T04:58:40.346Z,1043
2023-04-21T05:03:59.010Z,1126
2023-04-21T05:09:18.261Z,1161
2023-04-21T05:14:36.602Z,1179
2023-04-21T05:19:54.969Z,1191
2023-04-21T05:25:12.917Z,1194
2023-04-21T05:30:30.862Z,1200
2023-04-21T05:35:49.249Z,1199
2023-04-21T05:41:07.811Z,1204
2023-04-21T05:46:26.040Z,1212
2023-04-21T05:51:44.676Z,1212
2023-04-21T05:57:02.782Z,1209
2023-04-21T06:02:21.257Z,1201
2023-04-21T06:07:39.788Z,1202
2023-04-21T06:12:58.371Z,1203
2023-04-21T06:18:16.920Z,1201
2023-04-21T06:23:35.542Z,1193
2023-04-21T06:28:53.650Z,1190
2023-04-21T06:34:12.166Z,1183
2023-04-21T06:39:30.558Z,1174
2023-04-21T06:44:50.889Z,1171
2023-04-21T06:50:09.443Z,1166
2023-04-21T06:55:27.865Z,1155
2023-04-21T07:00:46.344Z,1147
2023-04-21T07:06:04.863Z,1141
2023-04-21T07:11:23.230Z,1132
2023-04-21T07:16:41.544Z,1131
2023-04-21T07:21:59.791Z,1118
2023-04-21T07:27:17.975Z,1103
2023-04-21T07:32:36.188Z,1091
2023-04-21T07:37:54.397Z,1083
2023-04-21T07:43:12.627Z,1072
2023-04-21T07:48:30.760Z,1063
2023-04-21T07:53:48.688Z,1059
2023-04-21T07:59:07.318Z,1048
2023-04-21T08:04:25.860Z,1040
2023-04-21T08:09:44.830Z,1030
2023-04-21T08:15:03.635Z,1016
2023-04-21T08:20:22.197Z,1013
2023-04-21T08:25:40.563Z,1003
2023-04-21T08:30:59.131Z,991
2023-04-21T08:36:26.373Z,975
2023-04-21T08:41:48.642Z,971
2023-04-21T08:47:06.899Z,963
2023-04-21T08:52:25.233Z,952
2023-04-21T08:57:43.802Z,940
2023-04-21T09:03:02.722Z,932
2023-04-21T09:08:33.974Z,925
2023-04-21T09:13:52.336Z,910
2023-04-21T09:19:10.654Z,897
2023-04-21T09:24:28.983Z,892
2023-04-21T09:29:47.377Z,884
2023-04-21T09:35:05.653Z,882
2023-04-21T09:40:24.005Z,877
2023-04-21T09:45:42.161Z,867
2023-04-21T09:56:59.867Z,865
2023-04-21T10:02:18.285Z,861
2023-04-21T10:07:37.408Z,860
2023-04-21T10:12:55.635Z,865
2023-04-21T10:18:13.951Z,870
2023-04-21T10:23:32.019Z,870
2023-04-21T10:28:50.345Z,863
2023-04-21T10:34:08.486Z,871
2023-04-21T10:39:26.897Z,872
2023-04-21T10:44:45.043Z,866
2023-04-21T10:50:03.593Z,865
2023-04-21T10:55:21.555Z,875
2023-04-21T11:00:39.895Z,875
2023-04-21T11:05:58.233Z,878
2023-04-21T11:11:16.587Z,879
2023-04-21T11:16:34.974Z,879
2023-04-21T11:21:53.331Z,883
2023-04-21T11:27:11.736Z,879
2023-04-21T11:32:30.089Z,880
2023-04-21T11:37:48.220Z,880
2023-04-21T11:43:06.727Z,883
2023-04-21T11:48:25.305Z,883
2023-04-21T11:53:43.809Z,892
2023-04-21T11:59:01.889Z,885
2023-04-21T12:04:20.635Z,884
2023-04-21T12:09:39.981Z,879
2023-04-21T12:14:58.420Z,877
2023-04-21T12:20:00.983Z,878
2023-04-21T12:25:19.334Z,877
2023-04-21T12:30:22.331Z,876
2023-04-21T12:35:41.200Z,879
2023-04-21T12:40:43.708Z,882
2023-04-21T12:46:02.439Z,879
2023-04-21T12:51:20.985Z,881
2023-04-21T12:56:39.188Z,878
2023-04-21T13:01:42.422Z,880
2023-04-21T13:07:01.204Z,883
2023-04-21T13:12:19.559Z,888
2023-04-21T13:17:38.193Z,883
2023-04-21T13:22:56.757Z,879
2023-04-21T13:28:14.922Z,880
2023-04-21T13:33:33.495Z,879
2023-04-21T13:38:51.660Z,884
2023-04-21T13:44:10.258Z,892
2023-04-21T13:49:28.859Z,889
2023-04-21T13:54:47.348Z,902
2023-04-21T14:00:05.933Z,1030
2023-04-21T14:05:24.288Z,1000
2023-04-21T14:10:43.565Z,989
2023-04-21T14:16:02.089Z,1010
2023-04-21T14:21:20.765Z,1007
2023-04-21T14:26:38.967Z,1008
2023-04-21T14:31:57.716Z,1004
2023-04-21T14:37:16.650Z,1012
2023-04-21T14:42:35.416Z,1026
2023-04-21T14:47:54.101Z,1048
2023-04-21T14:53:13.240Z,1057
2023-04-21T14:58:31.845Z,1091
2023-04-21T15:03:50.357Z,1146
2023-04-21T15:09:09.336Z,1185
2023-04-21T15:14:27.577Z,1224
2023-04-21T15:19:45.650Z,1255
2023-04-21T15:25:04.088Z,1263
2023-04-21T15:30:23.131Z,1267
2023-04-21T15:35:41.525Z,1264
2023-04-21T15:41:01.453Z,1263
2023-04-21T15:46:20.093Z,1258
2023-04-21T15:51:38.589Z,1257
2023-04-21T15:56:56.894Z,1257
2023-04-21T16:02:15.599Z,1255
2023-04-21T16:07:34.267Z,1257
2023-04-21T16:12:52.477Z,1259
2023-04-21T16:18:11.276Z,1263
2023-04-21T16:23:29.589Z,1256
2023-04-21T16:28:47.610Z,1259
2023-04-21T16:34:06.362Z,1260
2023-04-21T16:39:24.613Z,1269
2023-04-21T16:44:42.842Z,1270
2023-04-21T16:50:01.966Z,1272
2023-04-21T16:55:21.320Z,1277
2023-04-21T17:00:39.649Z,1287
2023-04-21T17:05:58.120Z,1285
2023-04-21T17:11:16.425Z,1296
2023-04-21T17:16:34.978Z,1301
2023-04-21T17:21:53.836Z,1300
2023-04-21T17:27:12.245Z,1282
2023-04-21T17:32:32.770Z,1253
2023-04-21T17:37:52.809Z,1221
2023-04-21T17:43:10.979Z,1195
2023-04-21T17:48:29.369Z,1164
2023-04-21T17:53:47.583Z,1137
2023-04-21T17:59:05.999Z,1117
2023-04-21T18:04:24.948Z,1084
2023-04-21T18:09:43.604Z,884
2023-04-21T18:15:01.584Z,934
2023-04-21T18:20:19.791Z,958
2023-04-21T18:25:42.344Z,965
2023-04-21T18:31:01.566Z,962
2023-04-21T18:36:19.977Z,965
2023-04-21T18:41:38.121Z,966
2023-04-21T18:46:56.962Z,969
2023-04-21T18:52:15.767Z,970
2023-04-21T18:57:34.123Z,978
2023-04-21T19:02:52.554Z,985
2023-04-21T19:08:11.606Z,999
2023-04-21T19:13:30.238Z,1004
2023-04-21T19:18:48.509Z,1011
2023-04-21T19:24:07.231Z,1014
2023-04-21T19:29:25.515Z,1014
2023-04-21T19:34:43.923Z,1017
2023-04-21T19:40:02.102Z,1027
2023-04-21T19:45:20.562Z,1036
2023-04-21T19:50:39.403Z,1044
2023-04-21T19:55:57.608Z,1058
2023-04-21T20:01:00.181Z,1065
2023-04-21T20:06:19.886Z,1063
2023-04-21T20:11:39.310Z,1071
2023-04-21T20:16:58.047Z,1082
2023-04-21T20:22:16.012Z,1103
2023-04-21T20:27:34.300Z,1120
2023-04-21T20:32:52.708Z,1133
2023-04-21T20:38:11.086Z,1150
2023-04-21T20:43:29.298Z,1175
2023-04-21T20:48:47.423Z,1180
2023-04-21T20:54:05.774Z,1192
2023-04-21T20:59:23.949Z,1214
2023-04-21T21:04:42.068Z,1227
2023-04-21T21:10:00.295Z,1244
2023-04-21T21:15:18.844Z,1265
2023-04-21T21:20:37.207Z,1217
2023-04-21T21:25:55.583Z,1076
2023-04-21T21:31:13.785Z,1206
2023-04-21T21:36:32.101Z,1227
2023-04-21T21:41:50.270Z,1250
2023-04-21T21:47:08.501Z,1270
2023-04-21T21:52:26.835Z,1311
2023-04-21T21:57:44.977Z,1343
2023-04-21T22:03:03.396Z,1369
2023-04-21T22:08:21.733Z,1376
2023-04-21T22:13:40.209Z,1384
2023-04-21T22:18:58.410Z,1390
2023-04-21T22:24:16.798Z,1399
2023-04-21T22:29:35.252Z,1406
2023-04-21T22:34:54.872Z,1407
2023-04-21T22:40:13.213Z,1416
2023-04-21T22:45:31.825Z,1425
2023-04-21T22:50:50.220Z,1432
2023-04-21T22:56:08.717Z,1439
2023-04-21T23:01:26.891Z,1450
2023-04-21T23:06:45.191Z,1459
2023-04-21T23:12:03.719Z,1466
2023-04-21T23:17:22.299Z,1474
2023-04-21T23:22:40.761Z,1475
2023-04-21T23:28:01.682Z,1484
2023-04-21T23:33:20.058Z,1501
2023-04-21T23:38:38.259Z,1502
2023-04-21T23:43:56.630Z,1508
2023-04-21T23:49:14.832Z,1523
2023-04-21T23:54:33.077Z,1532
2023-04-21T23:59:51.432Z,1535
